Time;durP1;ratioP1;P1;durP2;ratioP2;P2;SDS_P1;SDS_P2;PMS_P1;PMS_P2;Temp;Humidity;BMP_temperature;BMP_pressure;BME280_temperature;BME280_humidity;BME280_pressure;Samples;Min_cycle;Max_cycle;Signal;HPM_P1;HPM_P2
2021/12/10 00:02:34;;;;;;;11.52;5.50;;;;;;;;;;6296763;28;20028;-80
2021/12/10 00:05:41;;;;;;;12.70;6.93;;;;;;;;;;6314555;28;20127;-78
2021/12/10 00:08:47;;;;;;;17.38;7.95;;;;;;;;;;6293385;28;20045;-78
2021/12/10 00:11:55;;;;;;;14.93;7.50;;;;;;;;;;6270565;28;20078;-79
2021/12/10 00:14:57;;;;;;;13.40;6.85;;;;;;;;;;6299881;28;20106;-80
2021/12/10 00:18:02;;;;;;;13.13;6.82;;;;;;;;;;6314138;28;20051;-79
2021/12/10 00:21:04;;;;;;;12.98;6.88;;;;;;;;;;6295228;28;20412;-78
2021/12/10 00:24:08;;;;;;;12.55;6.85;;;;;;;;;;6293849;28;20047;-79
2021/12/10 00:27:12;;;;;;;13.48;6.93;;;;;;;;;;6312947;28;20142;-78
2021/12/10 00:30:17;;;;;;;;;;;;;;;;;;6286359;28;20052;-80
2021/12/10 00:33:21;;;;;;;12.45;6.13;;;;;;;;;;6313684;28;19993;-80
2021/12/10 00:36:23;;;;;;;10.00;5.35;;;;;;;;;;6296146;28;20036;-80
2021/12/10 00:39:34;;;;;;;10.82;5.53;;;;;;;;;;6269362;28;20048;-78
2021/12/10 00:42:36;;;;;;;8.88;5.55;;;;;;;;;;6296770;28;20054;-78
2021/12/10 00:45:38;;;;;;;12.87;5.90;;;;;;;;;;6311183;28;20412;-80
2021/12/10 00:48:40;;;;;;;14.38;7.18;;;;;;;;;;6271264;28;20051;-80
2021/12/10 00:51:43;;;;;;;12.47;5.43;;;;;;;;;;6295396;28;20044;-79
2021/12/10 00:54:45;;;;;;;11.25;5.60;;;;;;;;;;6270678;28;20214;-81
2021/12/10 00:57:47;;;;;;;15.07;6.63;;;;;;;;;;6271289;28;20051;-80
2021/12/10 01:00:55;;;;;;;10.60;5.88;;;;;;;;;;6278558;28;20047;-81
2021/12/10 01:04:06;;;;;;;10.57;5.45;;;;;;;;;;6312411;28;20048;-80
2021/12/10 01:07:11;;;;;;;9.05;4.85;;;;;;;;;;6312886;28;20044;-81
2021/12/10 01:10:26;;;;;;;9.65;5.13;;;;;;;;;;6277725;28;20058;-81
2021/12/10 01:13:33;;;;;;;10.25;4.90;;;;;;;;;;6295340;28;20044;-82
2021/12/10 01:29:56;;;;;;;10.65;4.47;;;;;;;;;;6307558;28;20109;-81
2021/12/10 01:33:05;;;;;;;10.05;4.55;;;;;;;;;;6314337;28;20046;-82
2021/12/10 01:36:08;;;;;;;10.82;5.57;;;;;;;;;;6295629;28;20173;-83
2021/12/10 01:39:13;;;;;;;8.95;4.45;;;;;;;;;;6263115;28;20560;-82
2021/12/10 01:45:30;;;;;;;12.82;5.00;;;;;;;;;;6314511;28;20043;-81
2021/12/10 01:48:37;;;;;;;9.25;5.15;;;;;;;;;;6316641;28;20115;-81
2021/12/10 01:51:42;;;;;;;9.40;4.93;;;;;;;;;;6317957;28;20048;-81
2021/12/10 01:54:49;;;;;;;8.32;4.72;;;;;;;;;;6306957;28;20051;-82
2021/12/10 01:57:52;;;;;;;10.00;4.75;;;;;;;;;;6303747;28;20050;-80
2021/12/10 02:01:03;;;;;;;13.68;5.20;;;;;;;;;;6287421;28;20480;-81
2021/12/10 02:04:06;;;;;;;9.45;4.60;;;;;;;;;;6294759;28;20045;-81
2021/12/10 02:07:10;;;;;;;10.07;4.28;;;;;;;;;;6270291;28;20043;-82
2021/12/10 02:10:14;;;;;;;9.95;4.63;;;;;;;;;;6315537;28;20127;-82
2021/12/10 02:13:16;;;;;;;7.13;3.70;;;;;;;;;;6296954;28;20482;-83
2021/12/10 02:16:18;;;;;;;9.90;4.13;;;;;;;;;;6312716;28;20043;-80
2021/12/10 02:19:20;;;;;;;6.95;3.88;;;;;;;;;;6299915;28;20082;-81
2021/12/10 02:22:21;;;;;;;8.70;3.45;;;;;;;;;;6297739;28;20558;-80
2021/12/10 02:25:26;;;;;;;8.88;4.40;;;;;;;;;;6314664;28;20047;-83
2021/12/10 02:28:29;;;;;;;9.05;3.97;;;;;;;;;;6280913;28;20527;-82
2021/12/10 02:31:31;;;;;;;8.65;4.28;;;;;;;;;;6274576;28;20043;-82
2021/12/10 02:34:33;;;;;;;6.80;3.55;;;;;;;;;;6317642;28;20127;-81
2021/12/10 02:37:34;;;;;;;9.98;4.10;;;;;;;;;;6292174;28;20032;-82
2021/12/10 02:40:37;;;;;;;6.03;3.60;;;;;;;;;;6296765;28;20051;-83
2021/12/10 02:43:40;;;;;;;7.60;4.00;;;;;;;;;;6317358;28;20177;-82
2021/12/10 02:46:42;;;;;;;7.18;4.07;;;;;;;;;;6299984;28;20037;-82
2021/12/10 02:49:44;;;;;;;12.93;3.90;;;;;;;;;;6306384;28;20051;-83
2021/12/10 02:52:46;;;;;;;10.45;3.75;;;;;;;;;;6283096;28;20044;-82
2021/12/10 02:55:48;;;;;;;7.32;4.05;;;;;;;;;;6286584;28;20045;-82
2021/12/10 02:58:54;;;;;;;8.32;3.75;;;;;;;;;;6302461;28;20400;-81
2021/12/10 03:01:55;;;;;;;6.32;3.75;;;;;;;;;;6298873;28;20055;-81
2021/12/10 03:04:57;;;;;;;7.40;3.25;;;;;;;;;;6299341;28;20048;-83
2021/12/10 03:07:59;;;;;;;7.50;3.45;;;;;;;;;;6289459;28;20065;-82
2021/12/10 03:11:01;;;;;;;9.35;3.90;;;;;;;;;;6294965;28;20121;-82
2021/12/10 03:14:10;;;;;;;9.60;3.92;;;;;;;;;;6286196;28;20032;-82
2021/12/10 03:17:16;;;;;;;8.98;4.13;;;;;;;;;;6298606;28;20044;-82
2021/12/10 03:20:21;;;;;;;10.20;4.00;;;;;;;;;;6320608;28;20186;-82
2021/12/10 03:23:23;;;;;;;6.78;3.40;;;;;;;;;;6312617;28;20040;-81
2021/12/10 03:26:25;;;;;;;6.22;3.33;;;;;;;;;;6303488;28;20036;-82
2021/12/10 03:29:28;;;;;;;5.38;3.60;;;;;;;;;;6320538;28;20040;-81
2021/12/10 03:32:32;;;;;;;7.07;3.05;;;;;;;;;;6303018;28;20103;-82
2021/12/10 03:35:41;;;;;;;5.55;3.35;;;;;;;;;;6318954;28;20138;-81
2021/12/10 03:38:43;;;;;;;7.53;3.00;;;;;;;;;;6293611;28;20036;-81
2021/12/10 03:41:45;;;;;;;10.57;3.40;;;;;;;;;;6295186;28;20214;-82
2021/12/10 03:44:48;;;;;;;4.20;2.88;;;;;;;;;;6309597;28;20042;-81
2021/12/10 03:47:49;;;;;;;6.85;3.10;;;;;;;;;;6304677;28;20032;-82
2021/12/10 03:50:51;;;;;;;7.30;3.20;;;;;;;;;;6298488;28;20138;-81
2021/12/10 03:53:53;;;;;;;9.02;3.42;;;;;;;;;;6318831;28;20155;-81
2021/12/10 03:56:55;;;;;;;8.50;3.10;;;;;;;;;;6302791;28;20052;-82
2021/12/10 03:59:56;;;;;;;9.18;3.28;;;;;;;;;;6308999;28;20050;-82
2021/12/10 04:02:59;;;;;;;12.07;4.35;;;;;;;;;;6318863;28;20044;-82
2021/12/10 04:06:02;;;;;;;7.93;3.35;;;;;;;;;;6296605;28;20040;-82
2021/12/10 04:09:05;;;;;;;9.75;3.00;;;;;;;;;;6295867;28;20048;-82
2021/12/10 04:12:08;;;;;;;7.35;3.28;;;;;;;;;;6302553;28;20044;-82
2021/12/10 04:15:11;;;;;;;8.80;3.35;;;;;;;;;;6292203;28;20054;-80
2021/12/10 04:18:13;;;;;;;8.52;3.10;;;;;;;;;;6276126;28;20053;-82
2021/12/10 04:21:16;;;;;;;7.97;3.50;;;;;;;;;;6292161;28;20051;-80
2021/12/10 04:24:20;;;;;;;7.53;3.08;;;;;;;;;;6294620;28;20053;-79
2021/12/10 04:27:21;;;;;;;4.50;2.60;;;;;;;;;;6298040;28;20040;-80
2021/12/10 04:30:25;;;;;;;6.65;2.88;;;;;;;;;;6297389;28;20046;-81
2021/12/10 04:33:27;;;;;;;8.85;2.30;;;;;;;;;;6319841;28;20733;-81
2021/12/10 04:36:28;;;;;;;9.02;3.20;;;;;;;;;;6309689;28;20058;-81
2021/12/10 04:39:30;;;;;;;6.97;2.85;;;;;;;;;;6262902;28;20040;-81
2021/12/10 04:42:32;;;;;;;6.95;3.17;;;;;;;;;;6275477;28;20041;-81
2021/12/10 04:45:34;;;;;;;9.60;3.25;;;;;;;;;;6273644;28;20041;-82
2021/12/10 04:49:05;;;;;;;7.55;2.83;;;;;;;;;;6301276;28;20040;-81
2021/12/10 04:52:07;;;;;;;6.05;2.65;;;;;;;;;;6310533;28;20054;-80
2021/12/10 04:55:16;;;;;;;5.47;2.60;;;;;;;;;;6290846;28;20055;-81
2021/12/10 04:58:17;;;;;;;6.30;2.70;;;;;;;;;;6317657;28;20052;-79
2021/12/10 05:01:19;;;;;;;5.18;2.63;;;;;;;;;;6310073;28;20181;-81
2021/12/10 05:04:22;;;;;;;4.55;2.58;;;;;;;;;;6317631;28;20043;-81
2021/12/10 05:07:29;;;;;;;13.97;3.57;;;;;;;;;;6316249;28;20040;-80
2021/12/10 05:10:32;;;;;;;8.50;2.85;;;;;;;;;;6316356;28;20119;-81
2021/12/10 05:13:35;;;;;;;10.43;3.47;;;;;;;;;;6298737;28;20040;-82
2021/12/10 05:16:42;;;;;;;4.57;2.58;;;;;;;;;;6267719;28;20056;-81
2021/12/10 05:19:46;;;;;;;9.40;3.10;;;;;;;;;;6275290;28;20056;-82
2021/12/10 05:22:49;;;;;;;8.93;3.10;;;;;;;;;;6305426;28;20052;-81
2021/12/10 05:25:51;;;;;;;7.63;3.05;;;;;;;;;;6300682;28;20126;-81
2021/12/10 05:28:53;;;;;;;12.07;3.53;;;;;;;;;;6299043;28;20048;-81
2021/12/10 05:31:56;;;;;;;8.80;3.70;;;;;;;;;;6317291;28;20046;-81
2021/12/10 05:34:58;;;;;;;8.95;4.55;;;;;;;;;;6299940;28;20416;-80
2021/12/10 05:38:00;;;;;;;8.80;3.65;;;;;;;;;;6290160;28;20054;-81
2021/12/10 05:41:05;;;;;;;9.18;3.88;;;;;;;;;;6298883;28;20044;-81
2021/12/10 05:44:07;;;;;;;8.32;3.20;;;;;;;;;;6292965;28;20577;-81
2021/12/10 05:47:09;;;;;;;11.07;4.68;;;;;;;;;;6289562;28;20128;-80
2021/12/10 05:50:11;;;;;;;13.32;4.10;;;;;;;;;;6298054;28;20086;-82
2021/12/10 05:53:13;;;;;;;13.23;4.43;;;;;;;;;;6273670;28;20426;-81
2021/12/10 05:56:16;;;;;;;10.98;4.40;;;;;;;;;;6275441;28;20047;-80
2021/12/10 05:59:18;;;;;;;8.20;4.35;;;;;;;;;;6298372;28;20041;-81
2021/12/10 06:02:19;;;;;;;11.75;4.90;;;;;;;;;;6288596;28;20416;-80
2021/12/10 06:05:23;;;;;;;13.25;4.85;;;;;;;;;;6298608;28;20515;-81
2021/12/10 06:08:26;;;;;;;19.15;7.85;;;;;;;;;;6289799;28;20040;-82
2021/12/10 06:11:28;;;;;;;12.60;5.00;;;;;;;;;;6291080;28;20036;-81
2021/12/10 06:14:30;;;;;;;16.25;5.95;;;;;;;;;;6280486;28;20569;-81
2021/12/10 06:17:31;;;;;;;16.13;5.93;;;;;;;;;;6265786;28;20040;-80
2021/12/10 06:20:36;;;;;;;16.05;5.85;;;;;;;;;;6271292;28;20048;-81
2021/12/10 06:23:39;;;;;;;8.88;4.35;;;;;;;;;;6304494;28;20036;-81
2021/12/10 06:26:41;;;;;;;13.40;4.93;;;;;;;;;;6270895;28;20451;-81
2021/12/10 06:29:43;;;;;;;10.13;4.00;;;;;;;;;;6288581;28;20047;-81
2021/12/10 06:32:46;;;;;;;12.05;4.22;;;;;;;;;;6314976;28;20150;-81
2021/12/10 06:35:51;;;;;;;13.10;4.47;;;;;;;;;;6314455;28;20054;-81
2021/12/10 06:38:53;;;;;;;10.02;4.60;;;;;;;;;;6295914;28;20047;-80
2021/12/10 06:41:55;;;;;;;11.73;5.13;;;;;;;;;;6298270;28;20131;-83
2021/12/10 06:44:57;;;;;;;12.43;5.45;;;;;;;;;;6307185;28;20050;-83
2021/12/10 06:48:04;;;;;;;10.23;4.60;;;;;;;;;;6276482;28;20044;-79
2021/12/10 06:51:09;;;;;;;9.82;5.07;;;;;;;;;;6275443;28;20125;-80
2021/12/10 06:54:11;;;;;;;13.90;5.47;;;;;;;;;;6321780;28;20146;-79
2021/12/10 06:57:13;;;;;;;14.70;5.93;;;;;;;;;;6321677;28;20044;-79
2021/12/10 07:00:27;;;;;;;10.93;6.05;;;;;;;;;;6302877;28;20504;-82
2021/12/10 07:03:29;;;;;;;16.50;5.65;;;;;;;;;;6303323;28;20105;-82
2021/12/10 07:06:31;;;;;;;13.00;5.93;;;;;;;;;;6300667;28;20097;-81
2021/12/10 07:09:33;;;;;;;12.48;5.50;;;;;;;;;;6277690;28;20131;-80
2021/12/10 07:12:36;;;;;;;14.45;6.35;;;;;;;;;;6277617;28;20046;-81
2021/12/10 07:15:42;;;;;;;15.90;6.15;;;;;;;;;;6310642;28;20035;-79
2021/12/10 07:18:43;;;;;;;9.35;5.35;;;;;;;;;;6292668;28;20408;-81
2021/12/10 07:21:45;;;;;;;14.57;6.30;;;;;;;;;;6279670;28;20048;-80
2021/12/10 07:24:47;;;;;;;14.52;6.65;;;;;;;;;;6318175;28;20047;-80
2021/12/10 07:27:50;;;;;;;12.48;6.35;;;;;;;;;;6299302;28;20036;-80
2021/12/10 07:30:52;;;;;;;13.82;6.43;;;;;;;;;;6293705;28;20043;-79
2021/12/10 07:33:54;;;;;;;10.73;5.90;;;;;;;;;;6294390;28;20108;-80
2021/12/10 07:36:56;;;;;;;13.93;5.75;;;;;;;;;;6276753;28;20112;-81
2021/12/10 07:39:58;;;;;;;20.05;6.32;;;;;;;;;;6284349;28;20774;-80
2021/12/10 07:43:00;;;;;;;14.10;5.68;;;;;;;;;;6300734;28;20059;-80
2021/12/10 07:46:04;;;;;;;11.32;5.05;;;;;;;;;;6300674;28;20044;-79
2021/12/10 07:49:14;;;;;;;9.15;4.68;;;;;;;;;;6319969;28;20036;-80
2021/12/10 07:52:22;;;;;;;12.52;5.40;;;;;;;;;;6301495;28;20048;-80
2021/12/10 07:55:27;;;;;;;11.57;5.35;;;;;;;;;;6302256;28;20189;-80
2021/12/10 07:58:30;;;;;;;10.75;5.28;;;;;;;;;;6295131;28;20733;-80
2021/12/10 08:01:32;;;;;;;9.15;5.18;;;;;;;;;;6277089;28;20055;-81
2021/12/10 08:04:36;;;;;;;9.50;4.07;;;;;;;;;;6295330;28;20063;-81
2021/12/10 08:07:38;;;;;;;10.55;5.55;;;;;;;;;;6304132;28;20040;-81
2021/12/10 08:10:42;;;;;;;10.20;4.10;;;;;;;;;;6266790;28;20052;-80
2021/12/10 08:13:45;;;;;;;10.77;4.60;;;;;;;;;;6316189;28;20052;-82
2021/12/10 08:16:46;;;;;;;11.15;4.07;;;;;;;;;;6303407;28;20128;-83
2021/12/10 08:19:48;;;;;;;8.77;3.83;;;;;;;;;;6275188;28;20070;-83
2021/12/10 08:22:51;;;;;;;16.27;8.15;;;;;;;;;;6314213;28;20047;-82
2021/12/10 08:25:53;;;;;;;11.33;5.43;;;;;;;;;;6300567;28;20054;-80
2021/12/10 08:28:54;;;;;;;5.30;3.30;;;;;;;;;;6300446;28;20450;-81
2021/12/10 08:31:56;;;;;;;4.70;3.17;;;;;;;;;;6281449;28;20044;-82
2021/12/10 08:35:00;;;;;;;16.73;4.00;;;;;;;;;;6277379;28;20080;-83
2021/12/10 08:38:02;;;;;;;11.50;4.68;;;;;;;;;;6295624;28;20143;-83
2021/12/10 08:41:17;;;;;;;12.73;4.22;;;;;;;;;;6296019;28;20045;-82
2021/12/10 08:44:19;;;;;;;9.85;4.10;;;;;;;;;;6311736;28;20174;-82
2021/12/10 08:47:21;;;;;;;9.88;3.65;;;;;;;;;;6295685;28;20040;-82
2021/12/10 08:50:26;;;;;;;8.73;3.72;;;;;;;;;;6298266;28;20044;-82
2021/12/10 08:53:28;;;;;;;9.77;3.40;;;;;;;;;;6306879;28;20040;-82
2021/12/10 08:56:31;;;;;;;8.30;3.22;;;;;;;;;;6275288;28;20104;-82
2021/12/10 08:59:34;;;;;;;6.82;3.25;;;;;;;;;;6282538;28;20425;-80
2021/12/10 09:02:37;;;;;;;;;;;;;;;;;;6300143;28;20147;-80
2021/12/10 09:05:39;;;;;;;7.15;4.00;;;;;;;;;;6313867;28;20377;-80
2021/12/10 09:08:41;;;;;;;13.10;3.95;;;;;;;;;;6288755;28;20040;-80
2021/12/10 09:11:47;;;;;;;6.68;3.08;;;;;;;;;;6299718;28;20123;-80
2021/12/10 09:14:56;;;;;;;6.55;2.88;;;;;;;;;;6285260;28;20047;-80
2021/12/10 09:17:59;;;;;;;8.40;3.42;;;;;;;;;;6300649;28;20086;-81
2021/12/10 09:21:01;;;;;;;5.13;2.83;;;;;;;;;;6300504;28;20073;-81
2021/12/10 09:24:06;;;;;;;8.20;3.90;;;;;;;;;;6296360;28;20549;-80
2021/12/10 09:27:09;;;;;;;4.55;2.90;;;;;;;;;;6307228;28;20044;-81
2021/12/10 09:30:15;;;;;;;9.02;4.00;;;;;;;;;;6290859;28;20056;-82
2021/12/10 09:33:17;;;;;;;5.43;2.60;;;;;;;;;;6295416;28;20048;-82
2021/12/10 09:36:20;;;;;;;7.57;2.60;;;;;;;;;;6276587;28;20055;-81
2021/12/10 09:39:22;;;;;;;8.38;3.33;;;;;;;;;;6307265;28;20064;-80
2021/12/10 09:42:25;;;;;;;7.78;2.80;;;;;;;;;;6301435;28;20059;-81
2021/12/10 09:45:29;;;;;;;5.88;3.00;;;;;;;;;;6310148;28;20059;-82
2021/12/10 09:48:32;;;;;;;6.13;2.30;;;;;;;;;;6297596;28;20122;-80
2021/12/10 09:51:38;;;;;;;9.35;2.72;;;;;;;;;;6317507;28;20048;-84
2021/12/10 09:54:39;;;;;;;12.93;3.53;;;;;;;;;;6313846;28;20040;-80
2021/12/10 09:57:45;;;;;;;6.82;2.53;;;;;;;;;;6312099;28;20161;-82
2021/12/10 10:01:02;;;;;;;6.60;3.03;;;;;;;;;;6308003;28;20076;-81
2021/12/10 10:04:05;;;;;;;6.78;2.40;;;;;;;;;;6310813;28;20032;-80
2021/12/10 10:07:12;;;;;;;6.13;2.22;;;;;;;;;;6294764;28;20089;-82
2021/12/10 10:10:16;;;;;;;5.32;2.25;;;;;;;;;;6292739;28;20454;-81
2021/12/10 10:13:25;;;;;;;5.78;2.17;;;;;;;;;;6298511;28;20412;-81
2021/12/10 10:16:29;;;;;;;3.63;1.92;;;;;;;;;;6309382;28;20575;-82
2021/12/10 10:19:31;;;;;;;6.10;2.80;;;;;;;;;;6299944;28;20055;-80
2021/12/10 10:22:33;;;;;;;3.33;2.22;;;;;;;;;;6291080;28;20127;-84
2021/12/10 10:25:40;;;;;;;7.03;2.78;;;;;;;;;;6293214;28;20036;-81
2021/12/10 10:28:42;;;;;;;5.93;1.95;;;;;;;;;;6296321;28;20113;-81
2021/12/10 10:31:53;;;;;;;7.18;3.13;;;;;;;;;;6295422;28;20044;-80
2021/12/10 10:35:01;;;;;;;5.85;2.55;;;;;;;;;;6315419;28;20040;-81
2021/12/10 10:38:05;;;;;;;9.73;2.95;;;;;;;;;;6297993;28;20405;-81
2021/12/10 10:41:10;;;;;;;7.05;2.50;;;;;;;;;;6303788;28;20044;-81
2021/12/10 10:44:12;;;;;;;4.80;1.95;;;;;;;;;;6284494;28;20051;-80
2021/12/10 10:47:16;;;;;;;9.67;2.23;;;;;;;;;;6274945;28;20061;-81
2021/12/10 10:50:20;;;;;;;;;;;;;;;;;;6290498;28;20053;-79
2021/12/10 10:53:31;;;;;;;7.18;1.90;;;;;;;;;;6307351;28;20022;-79
2021/12/10 10:56:41;;;;;;;5.75;2.22;;;;;;;;;;6297278;28;20032;-80
2021/12/10 10:59:45;;;;;;;4.25;1.60;;;;;;;;;;6312269;28;20051;-79
2021/12/10 11:02:52;;;;;;;7.25;1.85;;;;;;;;;;6312919;28;20049;-80
2021/12/10 11:05:57;;;;;;;5.63;2.15;;;;;;;;;;6292154;28;20068;-80
2021/12/10 11:09:26;;;;;;;6.18;2.05;;;;;;;;;;6289125;28;20405;-80
2021/12/10 11:12:37;;;;;;;4.97;2.20;;;;;;;;;;6293642;28;20048;-80
2021/12/10 11:15:54;;;;;;;5.10;1.77;;;;;;;;;;6287579;28;20154;-79
2021/12/10 11:19:03;;;;;;;7.03;2.20;;;;;;;;;;6271717;28;20520;-79
2021/12/10 11:22:11;;;;;;;5.90;2.95;;;;;;;;;;6284746;28;20043;-79
2021/12/10 11:25:18;;;;;;;6.40;2.50;;;;;;;;;;6290048;28;20048;-80
2021/12/10 11:28:27;;;;;;;5.75;2.53;;;;;;;;;;6296376;28;20043;-79
2021/12/10 11:31:28;;;;;;;5.45;2.78;;;;;;;;;;6277525;28;20456;-79
2021/12/10 11:34:45;;;;;;;4.90;1.88;;;;;;;;;;6288903;28;20036;-78
2021/12/10 11:38:08;;;;;;;4.38;1.70;;;;;;;;;;6284697;28;20081;-77
2021/12/10 11:41:15;;;;;;;7.50;2.97;;;;;;;;;;6294521;28;20048;-80
2021/12/10 11:47:38;;;;;;;5.78;2.08;;;;;;;;;;6296930;28;20045;-79
2021/12/10 11:50:55;;;;;;;6.18;2.05;;;;;;;;;;6275846;28;20056;-80
2021/12/10 11:54:01;;;;;;;6.72;2.05;;;;;;;;;;6282384;28;20048;-80
2021/12/10 11:57:24;;;;;;;5.93;2.10;;;;;;;;;;6316892;28;20185;-79
2021/12/10 12:00:29;;;;;;;;;;;;;;;;;;6315628;28;20096;-79
2021/12/10 12:03:34;;;;;;;13.73;5.43;;;;;;;;;;6317844;28;19935;-79
2021/12/10 12:06:36;;;;;;;17.55;7.07;;;;;;;;;;6297604;28;20069;-78
2021/12/10 12:09:40;;;;;;;41.22;13.70;;;;;;;;;;6304880;28;20127;-78
2021/12/10 12:12:45;;;;;;;11.10;5.00;;;;;;;;;;6272474;28;20124;-78
2021/12/10 12:15:50;;;;;;;9.93;4.10;;;;;;;;;;6290111;28;20118;-77
2021/12/10 12:18:54;;;;;;;8.40;3.15;;;;;;;;;;6289714;28;20040;-79
2021/12/10 12:22:37;;;;;;;14.15;5.50;;;;;;;;;;6290326;28;20183;-78
2021/12/10 12:25:31;;;;;;;11.25;5.68;;;;;;;;;;6312871;28;20044;-79
2021/12/10 12:28:48;;;;;;;4.30;2.00;;;;;;;;;;6297119;28;20044;-79
2021/12/10 12:32:14;;;;;;;7.53;2.60;;;;;;;;;;6291977;28;20044;-79
2021/12/10 12:35:24;;;;;;;6.13;2.15;;;;;;;;;;6315745;28;20113;-79
2021/12/10 12:38:29;;;;;;;7.30;2.42;;;;;;;;;;6295079;28;20493;-81
2021/12/10 12:41:51;;;;;;;6.05;2.30;;;;;;;;;;6298467;28;20500;-78
2021/12/10 12:44:57;;;;;;;4.10;2.17;;;;;;;;;;6291328;28;20405;-78
2021/12/10 12:48:19;;;;;;;4.63;1.92;;;;;;;;;;6292917;28;20040;-79
2021/12/10 12:51:21;;;;;;;5.70;2.40;;;;;;;;;;6290644;28;20080;-79
2021/12/10 12:54:23;;;;;;;6.05;2.50;;;;;;;;;;6279100;28;20096;-79
2021/12/10 12:57:36;;;;;;;5.35;2.92;;;;;;;;;;6316999;28;20161;-79
2021/12/10 13:01:10;;;;;;;5.72;2.22;;;;;;;;;;6293742;28;20047;-82
2021/12/10 13:04:19;;;;;;;8.82;4.35;;;;;;;;;;6295747;28;20051;-78
2021/12/10 13:07:40;;;;;;;7.10;2.58;;;;;;;;;;6307003;28;20043;-78
2021/12/10 13:10:49;;;;;;;9.38;3.17;;;;;;;;;;6309045;28;20059;-78
2021/12/10 13:13:54;;;;;;;5.15;2.30;;;;;;;;;;6300507;28;20396;-78
2021/12/10 13:17:08;;;;;;;4.50;2.45;;;;;;;;;;6308508;28;20173;-78
2021/12/10 13:20:20;;;;;;;7.50;2.70;;;;;;;;;;6309587;28;20093;-78
2021/12/10 13:23:24;;;;;;;4.82;2.40;;;;;;;;;;6310285;28;20048;-79
2021/12/10 13:26:26;;;;;;;11.95;4.72;;;;;;;;;;6307379;28;20043;-79
2021/12/10 13:29:29;;;;;;;5.85;2.15;;;;;;;;;;6286492;28;20190;-79
2021/12/10 13:32:31;;;;;;;12.95;5.32;;;;;;;;;;6290181;28;20068;-78
2021/12/10 13:35:33;;;;;;;7.63;2.80;;;;;;;;;;6290418;28;20431;-79
2021/12/10 13:38:39;;;;;;;8.80;4.13;;;;;;;;;;6299260;28;20036;-79
2021/12/10 13:41:42;;;;;;;8.25;3.40;;;;;;;;;;6281227;28;20071;-78
2021/12/10 13:44:50;;;;;;;8.10;3.38;;;;;;;;;;6283065;28;20378;-78
2021/12/10 13:48:03;;;;;;;8.07;3.35;;;;;;;;;;6289139;28;20489;-78
2021/12/10 13:51:06;;;;;;;6.82;3.10;;;;;;;;;;6299683;28;20131;-79
2021/12/10 13:54:23;;;;;;;6.07;3.10;;;;;;;;;;6296071;28;20173;-78
2021/12/10 13:57:25;;;;;;;7.65;3.28;;;;;;;;;;6305738;28;20047;-78
2021/12/10 14:00:27;;;;;;;6.40;2.67;;;;;;;;;;6307070;28;20048;-78
2021/12/10 14:03:47;;;;;;;6.97;2.60;;;;;;;;;;6285932;28;20421;-78
2021/12/10 14:07:04;;;;;;;19.45;10.50;;;;;;;;;;6285514;28;20068;-78
2021/12/10 14:10:07;;;;;;;8.05;3.50;;;;;;;;;;6285777;28;20044;-79
2021/12/10 14:13:24;;;;;;;5.50;3.20;;;;;;;;;;6292869;28;20043;-79
2021/12/10 14:16:51;;;;;;;6.25;3.25;;;;;;;;;;6305416;28;20089;-79
2021/12/10 14:20:57;;;;;;;6.63;3.35;;;;;;;;;;6313809;28;20040;-79
2021/12/10 14:24:33;;;;;;;13.23;4.90;;;;;;;;;;6213159;28;20048;-78
2021/12/10 14:28:10;;;;;;;8.55;4.20;;;;;;;;;;6294731;28;20047;-78
2021/12/10 14:31:42;;;;;;;8.77;4.50;;;;;;;;;;6276157;28;20052;-79
2021/12/10 14:35:06;;;;;;;8.37;3.57;;;;;;;;;;6307277;28;20048;-79
2021/12/10 14:38:08;;;;;;;13.27;5.32;;;;;;;;;;6309102;28;20982;-80
2021/12/10 14:41:33;;;;;;;10.75;4.80;;;;;;;;;;6296430;28;20062;-82
2021/12/10 14:44:35;;;;;;;9.63;4.95;;;;;;;;;;6295951;28;20111;-80
2021/12/10 14:47:38;;;;;;;23.60;10.00;;;;;;;;;;6297932;28;20056;-81
2021/12/10 14:51:10;;;;;;;11.88;5.47;;;;;;;;;;6277398;28;20036;-82
2021/12/10 14:54:49;;;;;;;14.13;6.30;;;;;;;;;;6286865;28;20093;-80
2021/12/10 14:58:14;;;;;;;39.95;13.65;;;;;;;;;;6302259;28;20059;-78
2021/12/10 15:01:42;;;;;;;42.22;12.98;;;;;;;;;;6303635;28;20044;-79
2021/12/10 15:05:11;;;;;;;22.73;6.97;;;;;;;;;;6286338;28;20054;-80
2021/12/10 15:08:55;;;;;;;15.95;7.18;;;;;;;;;;6220248;28;20058;-80
2021/12/10 15:12:16;;;;;;;7.32;4.32;;;;;;;;;;6301959;28;20045;-78
2021/12/10 15:15:49;;;;;;;9.25;4.57;;;;;;;;;;6309528;28;20048;-79
2021/12/10 15:18:54;;;;;;;;;;;;;;;;;;6296909;28;20044;-82
2021/12/10 15:22:07;;;;;;;6.43;3.92;;;;;;;;;;6292701;28;19920;-81
2021/12/10 15:25:14;;;;;;;6.38;2.88;;;;;;;;;;6313028;28;20094;-78
2021/12/10 15:28:20;;;;;;;8.18;3.90;;;;;;;;;;6301060;28;20051;-78
2021/12/10 15:31:21;;;;;;;12.93;7.18;;;;;;;;;;6295617;28;20064;-77
2021/12/10 15:34:30;;;;;;;4.85;2.72;;;;;;;;;;6272100;28;20060;-78
2021/12/10 15:37:33;;;;;;;54.88;19.05;;;;;;;;;;6301448;28;20040;-78
2021/12/10 15:40:40;;;;;;;34.65;11.95;;;;;;;;;;6298078;28;20059;-77
2021/12/10 15:43:45;;;;;;;17.75;9.05;;;;;;;;;;6305247;28;20043;-79
2021/12/10 15:46:54;;;;;;;6.95;3.95;;;;;;;;;;6314428;28;20123;-78
2021/12/10 15:49:56;;;;;;;11.57;4.78;;;;;;;;;;6321188;28;20127;-77
2021/12/10 15:53:03;;;;;;;7.43;4.22;;;;;;;;;;6287192;28;20044;-78
2021/12/10 15:56:12;;;;;;;11.70;4.75;;;;;;;;;;6300433;28;20044;-77
2021/12/10 15:59:20;;;;;;;10.55;4.75;;;;;;;;;;6282349;28;20099;-78
2021/12/10 16:02:23;;;;;;;6.72;4.78;;;;;;;;;;6283699;28;20052;-78
2021/12/10 16:05:25;;;;;;;8.98;3.75;;;;;;;;;;6291197;28;20064;-78
2021/12/10 16:08:36;;;;;;;7.97;4.25;;;;;;;;;;6282409;28;20146;-76
2021/12/10 16:11:38;;;;;;;12.02;5.65;;;;;;;;;;6312077;28;20044;-79
2021/12/10 16:14:40;;;;;;;11.65;6.35;;;;;;;;;;6289924;28;20043;-78
2021/12/10 16:17:42;;;;;;;16.50;8.57;;;;;;;;;;6272640;28;20135;-82
2021/12/10 16:20:52;;;;;;;10.85;6.05;;;;;;;;;;6269840;28;20048;-80
2021/12/10 16:24:05;;;;;;;13.60;5.78;;;;;;;;;;6299288;28;20048;-80
2021/12/10 16:27:13;;;;;;;11.20;5.75;;;;;;;;;;6312392;28;20058;-79
2021/12/10 16:30:34;;;;;;;8.88;5.22;;;;;;;;;;6285378;28;20060;-79
2021/12/10 16:33:38;;;;;;;9.68;4.18;;;;;;;;;;6278781;28;20048;-79
2021/12/10 16:36:44;;;;;;;6.82;3.60;;;;;;;;;;6313068;28;20036;-78
2021/12/10 16:39:47;;;;;;;7.05;3.28;;;;;;;;;;6279221;28;20050;-76
2021/12/10 16:42:58;;;;;;;7.22;3.67;;;;;;;;;;6272121;28;20090;-78
2021/12/10 16:46:01;;;;;;;11.55;6.03;;;;;;;;;;6267119;28;20082;-79
2021/12/10 16:49:14;;;;;;;8.65;4.57;;;;;;;;;;6289471;28;20040;-80
2021/12/10 16:52:27;;;;;;;26.25;10.38;;;;;;;;;;6280631;28;20048;-78
2021/12/10 16:55:52;;;;;;;14.38;6.50;;;;;;;;;;6308303;28;20043;-81
2021/12/10 16:58:55;;;;;;;16.35;6.10;;;;;;;;;;6296565;28;20062;-81
2021/12/10 17:02:10;;;;;;;10.70;5.13;;;;;;;;;;6315973;28;20468;-81
2021/12/10 17:05:19;;;;;;;11.20;6.65;;;;;;;;;;6281557;28;20056;-77
2021/12/10 17:08:25;;;;;;;10.65;6.00;;;;;;;;;;6280489;28;20043;-79
2021/12/10 17:11:34;;;;;;;12.50;6.50;;;;;;;;;;6289703;28;20040;-78
2021/12/10 17:14:45;;;;;;;11.45;5.55;;;;;;;;;;6268022;28;20141;-80
2021/12/10 17:17:52;;;;;;;13.73;7.40;;;;;;;;;;6289471;28;20043;-80
2021/12/10 17:21:03;;;;;;;13.45;7.60;;;;;;;;;;6296666;28;20040;-80
2021/12/10 17:24:07;;;;;;;11.45;6.85;;;;;;;;;;6305841;28;20623;-79
2021/12/10 17:27:13;;;;;;;15.43;7.93;;;;;;;;;;6307750;28;20044;-80
2021/12/10 17:30:18;;;;;;;12.63;5.55;;;;;;;;;;6305481;28;20080;-79
2021/12/10 17:33:26;;;;;;;11.52;6.18;;;;;;;;;;6289261;28;20127;-77
2021/12/10 17:36:39;;;;;;;11.02;5.78;;;;;;;;;;6290345;28;20043;-78
2021/12/10 17:39:45;;;;;;;15.88;6.40;;;;;;;;;;6291890;28;20066;-78
2021/12/10 17:42:54;;;;;;;16.00;6.55;;;;;;;;;;6309161;28;20496;-79
2021/12/10 17:46:02;;;;;;;15.35;5.30;;;;;;;;;;6290906;28;20075;-78
2021/12/10 17:49:09;;;;;;;18.08;8.35;;;;;;;;;;6289206;28;20086;-78
2021/12/10 17:52:15;;;;;;;11.55;5.95;;;;;;;;;;6288861;28;20050;-79
2021/12/10 17:55:18;;;;;;;15.15;6.90;;;;;;;;;;6306684;28;20691;-78
2021/12/10 17:58:24;;;;;;;17.08;10.02;;;;;;;;;;6276673;28;20055;-79
2021/12/10 18:01:37;;;;;;;18.25;8.35;;;;;;;;;;6263630;28;20407;-78
2021/12/10 18:04:45;;;;;;;27.23;12.23;;;;;;;;;;6292706;28;20636;-79
2021/12/10 18:07:48;;;;;;;27.55;12.98;;;;;;;;;;6270128;28;20047;-79
2021/12/10 18:10:52;;;;;;;;;;;;;;;;;;6273216;28;20511;-78
2021/12/10 18:13:54;;;;;;;22.23;10.50;;;;;;;;;;6263782;28;19924;-77
2021/12/10 18:16:56;;;;;;;26.85;10.38;;;;;;;;;;6292970;28;20126;-79
2021/12/10 18:20:10;;;;;;;16.13;7.55;;;;;;;;;;6287513;28;20040;-80
2021/12/10 18:23:16;;;;;;;21.10;9.15;;;;;;;;;;6278733;28;20056;-77
2021/12/10 18:26:21;;;;;;;16.23;7.95;;;;;;;;;;6269450;28;20048;-78
2021/12/10 18:29:36;;;;;;;13.82;8.27;;;;;;;;;;6268833;28;20206;-76
2021/12/10 18:32:38;;;;;;;14.60;8.35;;;;;;;;;;6265378;28;20404;-77
2021/12/10 18:35:43;;;;;;;21.20;9.73;;;;;;;;;;6276862;28;20103;-77
2021/12/10 18:38:50;;;;;;;18.80;8.88;;;;;;;;;;6269655;28;20044;-79
2021/12/10 18:42:04;;;;;;;20.25;9.93;;;;;;;;;;6307995;28;20047;-78
2021/12/10 18:45:19;;;;;;;18.90;8.75;;;;;;;;;;6287418;28;20121;-75
2021/12/10 18:48:23;;;;;;;19.60;10.10;;;;;;;;;;6304991;28;20521;-78
2021/12/10 18:51:36;;;;;;;17.88;10.10;;;;;;;;;;6289122;28;20050;-79
2021/12/10 18:54:44;;;;;;;21.20;12.50;;;;;;;;;;6304335;28;20044;-78